Tuesday, June 19, 2018, 12:55 AM EDT
Back to Local

KSWF, Newburgh / Stewart

Location: New Windsor, NY, United States Lat: 41.5
Local Time: 12:55 AM EDT ( 4:55 GMT) Lon: -74.1
Time Zone: US/Eastern Elev: 492 ft

Show me the last for .
Show Decoded

2018-06-18 23:45 METAR KSWF 190345Z 00000KT 10SM BKN070 24/23 A2977 =
2018-06-18 22:45 METAR KSWF 190245Z 25006KT 10SM -DZ BKN070 25/24 A2981 =
2018-06-18 21:45 METAR KSWF 190145Z 00000KT 10SM BKN120 24/24 A2981 =
2018-06-18 20:45 METAR KSWF 190045Z 00000KT 10SM BKN120 23/23 A2980 =
2018-06-18 19:45 METAR KSWF 182345Z 31006KT 10SM SCT035 BKN120 24/23 A2981 RMK TSB2226E30 =
2018-06-18 19:05 METAR KSWF 182305Z 29015KT 5SM -TSRA BKN035 OVC080 23/22 A2981 RMK OCNL LTG
                 TSB26 TS S MOV SE =
2018-06-18 18:45 METAR KSWF 182245Z 25020G30KT 1/2SM +TSRA BKN040 OVC080 30/22 A2982 RMK FREQ LTG
                 TSB26 TS OHD MOV SE =
2018-06-18 18:30 METAR KSWF 182230Z 24015KT 10SM -TSRA BKN080 31/24 A2979 RMK OCNL LTG TSB26 TS
                 NW MOV SSE =
2018-06-18 17:45 METAR KSWF 182145Z 26015KT 15SM FEW040 BKN080 32/24 A2980 =
2018-06-18 16:45 METAR KSWF 182045Z 27015KT 15SM SCT040 BKN080 33/23 A2982 =
2018-06-18 15:45 METAR KSWF 181945Z 28012KT 10SM SCT040 33/24 A2984 =
2018-06-18 14:45 METAR KSWF 181845Z 25015KT 10SM SCT040 34/24 A2987 =
2018-06-18 13:45 METAR KSWF 181745Z 26010KT 32/23 A2991 =
2018-06-18 12:45 METAR KSWF 181645Z 26010KT 15SM SCT040 32/23 A2994 =
2018-06-18 11:45 METAR KSWF 181545Z 25008KT 15SM SCT040 30/22 A2996 =
2018-06-18 10:45 METAR KSWF 181445Z 22008KT 15SM FEW100 29/21 A2998 =
2018-06-18 09:45 METAR KSWF 181345Z 28006KT 15SM SCT100 27/21 A2999 =
2018-06-18 08:45 METAR KSWF 181245Z 26007KT 15SM SCT100 25/19 A3002 =
2018-06-18 07:45 METAR KSWF 181145Z 26007KT 15SM SCT100 24/19 A3002 =
2018-06-18 06:45 METAR KSWF 181045Z 00000KT 10SM SCT090 22/18 A3003 =
2018-06-18 05:45 METAR KSWF 180945Z 00000KT 10SM SKC 20/17 A3003 =
2018-06-18 04:45 METAR KSWF 180845Z 00000KT 10SM SCT060 21/17 A3004 =
2018-06-18 03:45 METAR KSWF 180745Z 00000KT 10SM SCT060 21/17 A3005 =
2018-06-18 02:45 METAR KSWF 180645Z 00000KT 10SM SKC 21/17 A3006 =
2018-06-18 01:45 METAR KSWF 180545Z 00000KT 10SM SKC 22/17 A3006 =

Support USWX by starting your Amazon purchase here.